San Remo, Italy

11:39 AM CET on December 28, 2014 (GMT +0100)
Arma di Taggia | Change Station
CLOSE
Current Station
Personal Weather Station
Location: Taggia, LIGURIA
Elevation: 36 ft
Nearby Weather Stations
Active Advisory: Wind

Elev 36 ft 43.83 °N, 7.86 °E | Updated 4 minutes ago

Partly Cloudy
Partly Cloudy
54.3 °F
Feels Like 54.3 °F
N
3.8
Wind Variable Wind from West
Gusts 4.9 mph

Today
High -- | Low -- °F
--% Chance of Precip.
Yesterday
High -- | Low -- °F
Precip. -- in
8:02 AM 4:58 PM
Waxing Crescent, 46% visible
Pressure 29.56 in
Visibility 6.2 miles
Clouds Few 2600 ft
Dew Point 21 °F
Humidity 27%
Rainfall 0.00 in
Snow Depth Not available.
UV 2 out of 12
Pollen Not available.
Air Quality Not available.
Flu Activity Not available.
METAR LFMN 281030Z 30003KT 270V340 9999 FEW026 10/M08 Q1001 NOSIG

More Conditions Fewer Conditions

Pressure 29.56 in
Visibility 6.2 miles
Clouds Few 2600 ft
Dew Point 21 °F
Humidity 27%
Rainfall 0.00 in
Snow Depth Not available.
UV 2 out of 12
Pollen Not available.
Air Quality Not available.
Flu Activity Not available.
METAR LFMN 281030Z 30003KT 270V340 9999 FEW026 10/M08 Q1001 NOSIG

More Conditions Fewer Conditions

10-Day Weather Forecast

Almanac

Astronomy

Dec. 28, 2014 Rise Set
Actual Time
Civil Twilight
Nautical Twilight
Astronomical Twilight
Moon
Length of Visible Light
Length of Day
Tomorrow will be .
, % of the Moon is Illuminated

Today's Extremes

Country Highs Country Lows

Community

WunderPhotos

Upload Photos

1,781,232 photos uploaded!

WunderBlogs® & News

Nearby

Air Quality

  Air Quality AQ Index Pollutant
Not available.

Snow Depth

Station Depth Elevation

Earthquake Activity

City Distance Mag. Time & Date
Minimum magnitude displayed is 2.5.

Coastal Water Temperatures

Place Temperature

Nearby Weather Stations